Tulelake, CA

10:07 AM PDT on October 02, 2014 (GMT -0700)
RAWS LOWER KLAMATH - FTS CA US | Change Station
CLOSE
Current Station
Personal Weather Station
Location: Merrill, OR
Elevation: 4098 ft
Nearby Weather Stations

Elev 4098 ft 42.00 °N, 121.70 °W | Updated 35 minutes ago

Clear
Clear
47 °F
Feels Like 47 °F
N
3
Wind Variable Wind from WNW
Gusts 6.0 mph

Today
High -- | Low -- °F
--% Chance of Precip.
Yesterday
High -- | Low -- °F
Precip. -- in
7:03 AM 6:45 PM
First Quarter, 60% visible
Pressure 30.26 in
Visibility 10.0 miles
Clouds Clear
Windchill 47 °F
Dew Point 37 °F
Humidity 67%
Rainfall 0.00 in
Snow Depth 2 in , 0 in , 0 in
UV 3 out of 12
Pollen 2.90 out of 12
Air Quality Not available.
Flu Activity Not available.
METAR KLMT 021653Z 31003KT 10SM CLR 10/02 A3029 RMK AO2 SLP246 T01000022

More Conditions Fewer Conditions

Pressure 30.26 in
Visibility 10.0 miles
Clouds Clear
Windchill 47 °F
Dew Point 37 °F
Humidity 67%
Rainfall 0.00 in
Snow Depth 2 in , 0 in , 0 in
UV 3 out of 12
Pollen 2.90 out of 12
Air Quality Not available.
Flu Activity Not available.
METAR KLMT 021653Z 31003KT 10SM CLR 10/02 A3029 RMK AO2 SLP246 T01000022

More Conditions Fewer Conditions

10-Day Weather Forecast

Almanac

Astronomy

Oct. 02, 2014 Rise Set
Actual Time 7:03 AM PDT 6:45 PM PDT
Civil Twilight 6:36 AM PDT 7:13 PM PDT
Nautical Twilight 6:03 AM PDT 7:45 PM PDT
Astronomical Twilight 5:31 AM PDT 8:18 PM PDT
Moon 3:00 PM PDT 12:21 AM PDT
Length of Visible Light 12h 37m
Length of Day
11h 41m
Tomorrow will be 2m 47s shorter.
First Quarter, 60% of the Moon is Illuminated
Today
First Quarter
Oct 8
Full
Oct 15
Last Quarter
Oct 23
New
Oct 30
First Quarter

Today's Extremes

State Highs State Lows

Community

WunderPhotos

Upload Photos

1,758,298 photos uploaded!

Nearby

Snow Depth

Station Depth Elevation
Summit Meadow 2 in 9122 ft
Independence Camp 0 in 7000 ft
Heavenly Valley 0 in 8850 ft
CSS Lab 4 in 6900 ft
Truckee #2 0 in 6400 ft

Earthquake Activity

City Distance Mag. Time & Date
Lakeview, Oregon 94 miles 2.7 7:56 PM PDT
2014-10-01
Lakeview, Oregon 95 miles 3.0 1:55 PM PDT
2014-10-01
Lakeview, Oregon 94 miles 3.2 12:54 PM PDT
2014-10-01
Lakeview, Oregon 93 miles 2.5 10:36 AM PDT
2014-10-01
Minimum magnitude displayed is 2.5.

Coastal Water Temperatures

Place Temperature
No Stations Reporting

Nearby Weather Stations